sensor_id;sensor_type;location;lat;lon;timestamp;P1;durP1;ratioP1;P2;durP2;ratioP2
9722;SDS011;4900;49.306;8.500;2024-02-26T00:02:23;2.13;;;1.80;;
9722;SDS011;4900;49.306;8.500;2024-02-26T00:04:49;3.07;;;2.10;;
9722;SDS011;4900;49.306;8.500;2024-02-26T00:07:15;3.33;;;2.00;;
9722;SDS011;4900;49.306;8.500;2024-02-26T00:09:41;2.73;;;2.20;;
9722;SDS011;4900;49.306;8.500;2024-02-26T00:12:06;2.37;;;1.90;;
9722;SDS011;4900;49.306;8.500;2024-02-26T00:14:32;2.00;;;1.70;;
9722;SDS011;4900;49.306;8.500;2024-02-26T00:16:57;2.07;;;1.87;;
9722;SDS011;4900;49.306;8.500;2024-02-26T00:19:22;3.40;;;2.10;;
9722;SDS011;4900;49.306;8.500;2024-02-26T00:21:48;2.07;;;1.87;;
9722;SDS011;4900;49.306;8.500;2024-02-26T00:24:13;2.87;;;2.30;;
9722;SDS011;4900;49.306;8.500;2024-02-26T00:26:39;2.67;;;2.13;;
9722;SDS011;4900;49.306;8.500;2024-02-26T00:29:04;2.87;;;1.90;;
9722;SDS011;4900;49.306;8.500;2024-02-26T00:31:30;2.30;;;1.93;;
9722;SDS011;4900;49.306;8.500;2024-02-26T00:33:55;2.27;;;1.90;;
9722;SDS011;4900;49.306;8.500;2024-02-26T00:36:21;3.10;;;1.90;;
9722;SDS011;4900;49.306;8.500;2024-02-26T00:38:46;2.70;;;1.97;;
9722;SDS011;4900;49.306;8.500;2024-02-26T00:41:16;2.80;;;2.23;;
9722;SDS011;4900;49.306;8.500;2024-02-26T00:43:41;2.93;;;2.00;;
9722;SDS011;4900;49.306;8.500;2024-02-26T00:46:07;2.10;;;1.90;;
9722;SDS011;4900;49.306;8.500;2024-02-26T00:48:33;2.40;;;2.00;;
9722;SDS011;4900;49.306;8.500;2024-02-26T00:50:58;2.47;;;2.00;;
9722;SDS011;4900;49.306;8.500;2024-02-26T00:53:23;4.73;;;2.10;;
9722;SDS011;4900;49.306;8.500;2024-02-26T00:55:50;2.87;;;1.97;;
9722;SDS011;4900;49.306;8.500;2024-02-26T00:58:15;2.70;;;1.90;;
9722;SDS011;4900;49.306;8.500;2024-02-26T01:00:41;2.73;;;2.10;;
9722;SDS011;4900;49.306;8.500;2024-02-26T01:03:07;2.60;;;2.00;;
9722;SDS011;4900;49.306;8.500;2024-02-26T01:05:32;2.37;;;1.90;;
9722;SDS011;4900;49.306;8.500;2024-02-26T01:07:58;2.23;;;1.87;;
9722;SDS011;4900;49.306;8.500;2024-02-26T01:10:23;2.30;;;1.70;;
9722;SDS011;4900;49.306;8.500;2024-02-26T01:12:49;2.20;;;2.00;;
9722;SDS011;4900;49.306;8.500;2024-02-26T01:15:14;2.37;;;2.00;;
9722;SDS011;4900;49.306;8.500;2024-02-26T01:17:40;1.93;;;1.73;;
9722;SDS011;4900;49.306;8.500;2024-02-26T01:20:05;2.53;;;2.00;;
9722;SDS011;4900;49.306;8.500;2024-02-26T01:22:31;2.20;;;2.00;;
9722;SDS011;4900;49.306;8.500;2024-02-26T01:24:56;2.43;;;1.93;;
9722;SDS011;4900;49.306;8.500;2024-02-26T01:27:22;2.93;;;2.30;;
9722;SDS011;4900;49.306;8.500;2024-02-26T01:29:51;3.13;;;2.20;;
9722;SDS011;4900;49.306;8.500;2024-02-26T01:32:17;2.30;;;1.80;;
9722;SDS011;4900;49.306;8.500;2024-02-26T01:34:43;2.10;;;1.80;;
9722;SDS011;4900;49.306;8.500;2024-02-26T01:37:08;2.23;;;1.80;;
9722;SDS011;4900;49.306;8.500;2024-02-26T01:39:33;2.30;;;1.90;;
9722;SDS011;4900;49.306;8.500;2024-02-26T01:41:59;2.30;;;2.00;;
9722;SDS011;4900;49.306;8.500;2024-02-26T01:44:25;2.23;;;1.90;;
9722;SDS011;4900;49.306;8.500;2024-02-26T01:46:51;2.43;;;1.93;;
9722;SDS011;4900;49.306;8.500;2024-02-26T01:49:18;2.37;;;2.10;;
9722;SDS011;4900;49.306;8.500;2024-02-26T01:51:44;2.27;;;2.00;;
9722;SDS011;4900;49.306;8.500;2024-02-26T01:54:10;2.27;;;1.93;;
9722;SDS011;4900;49.306;8.500;2024-02-26T01:56:36;2.73;;;2.10;;
9722;SDS011;4900;49.306;8.500;2024-02-26T01:59:03;2.80;;;1.83;;
9722;SDS011;4900;49.306;8.500;2024-02-26T02:01:29;2.23;;;1.87;;
9722;SDS011;4900;49.306;8.500;2024-02-26T02:03:58;2.57;;;2.00;;
9722;SDS011;4900;49.306;8.500;2024-02-26T02:06:24;2.90;;;2.50;;
9722;SDS011;4900;49.306;8.500;2024-02-26T02:08:51;3.17;;;2.30;;
9722;SDS011;4900;49.306;8.500;2024-02-26T02:11:17;2.93;;;2.10;;
9722;SDS011;4900;49.306;8.500;2024-02-26T02:13:43;2.90;;;2.20;;
9722;SDS011;4900;49.306;8.500;2024-02-26T02:16:08;2.23;;;2.03;;
9722;SDS011;4900;49.306;8.500;2024-02-26T02:18:34;2.77;;;2.00;;
9722;SDS011;4900;49.306;8.500;2024-02-26T02:21:02;1.67;;;1.40;;
9722;SDS011;4900;49.306;8.500;2024-02-26T02:23:28;2.50;;;1.50;;
9722;SDS011;4900;49.306;8.500;2024-02-26T02:25:53;1.47;;;1.30;;
9722;SDS011;4900;49.306;8.500;2024-02-26T02:28:22;1.43;;;1.30;;
9722;SDS011;4900;49.306;8.500;2024-02-26T02:30:50;1.30;;;1.20;;
9722;SDS011;4900;49.306;8.500;2024-02-26T02:33:15;1.43;;;1.30;;
9722;SDS011;4900;49.306;8.500;2024-02-26T02:35:41;1.20;;;1.10;;
9722;SDS011;4900;49.306;8.500;2024-02-26T02:38:07;1.87;;;1.00;;
9722;SDS011;4900;49.306;8.500;2024-02-26T02:40:32;2.53;;;1.00;;
9722;SDS011;4900;49.306;8.500;2024-02-26T02:42:57;1.00;;;0.90;;
9722;SDS011;4900;49.306;8.500;2024-02-26T02:45:23;0.90;;;0.90;;
9722;SDS011;4900;49.306;8.500;2024-02-26T02:47:49;1.13;;;0.83;;
9722;SDS011;4900;49.306;8.500;2024-02-26T02:50:14;1.10;;;1.00;;
9722;SDS011;4900;49.306;8.500;2024-02-26T02:52:40;1.13;;;1.00;;
9722;SDS011;4900;49.306;8.500;2024-02-26T02:55:05;1.00;;;0.90;;
9722;SDS011;4900;49.306;8.500;2024-02-26T02:57:31;0.83;;;0.80;;
9722;SDS011;4900;49.306;8.500;2024-02-26T02:59:57;1.17;;;1.00;;
9722;SDS011;4900;49.306;8.500;2024-02-26T03:02:22;1.13;;;1.03;;
9722;SDS011;4900;49.306;8.500;2024-02-26T03:04:50;1.50;;;1.10;;
9722;SDS011;4900;49.306;8.500;2024-02-26T03:07:15;1.90;;;1.10;;
9722;SDS011;4900;49.306;8.500;2024-02-26T03:09:40;2.30;;;1.00;;
9722;SDS011;4900;49.306;8.500;2024-02-26T03:12:06;1.77;;;1.17;;
9722;SDS011;4900;49.306;8.500;2024-02-26T03:14:31;1.77;;;1.33;;
9722;SDS011;4900;49.306;8.500;2024-02-26T03:16:57;1.30;;;1.20;;
9722;SDS011;4900;49.306;8.500;2024-02-26T03:19:22;1.77;;;1.40;;
9722;SDS011;4900;49.306;8.500;2024-02-26T03:21:48;1.57;;;1.23;;
9722;SDS011;4900;49.306;8.500;2024-02-26T03:24:13;1.90;;;1.60;;
9722;SDS011;4900;49.306;8.500;2024-02-26T03:26:41;2.43;;;1.63;;
9722;SDS011;4900;49.306;8.500;2024-02-26T03:29:07;2.40;;;1.33;;
9722;SDS011;4900;49.306;8.500;2024-02-26T03:31:32;2.17;;;1.37;;
9722;SDS011;4900;49.306;8.500;2024-02-26T03:33:58;2.40;;;1.33;;
9722;SDS011;4900;49.306;8.500;2024-02-26T03:36:23;2.37;;;1.20;;
9722;SDS011;4900;49.306;8.500;2024-02-26T03:38:49;1.60;;;1.00;;
9722;SDS011;4900;49.306;8.500;2024-02-26T03:41:14;1.30;;;1.20;;
9722;SDS011;4900;49.306;8.500;2024-02-26T03:43:39;1.30;;;1.20;;
9722;SDS011;4900;49.306;8.500;2024-02-26T03:46:08;1.10;;;1.00;;
9722;SDS011;4900;49.306;8.500;2024-02-26T03:48:42;1.10;;;1.00;;
9722;SDS011;4900;49.306;8.500;2024-02-26T03:51:08;1.23;;;1.10;;
9722;SDS011;4900;49.306;8.500;2024-02-26T03:53:35;1.10;;;1.00;;
9722;SDS011;4900;49.306;8.500;2024-02-26T03:56:04;1.20;;;1.10;;
9722;SDS011;4900;49.306;8.500;2024-02-26T03:58:31;1.20;;;1.10;;
9722;SDS011;4900;49.306;8.500;2024-02-26T04:00:56;1.53;;;1.10;;
9722;SDS011;4900;49.306;8.500;2024-02-26T04:03:24;1.10;;;1.00;;
9722;SDS011;4900;49.306;8.500;2024-02-26T04:05:49;2.07;;;1.10;;
9722;SDS011;4900;49.306;8.500;2024-02-26T04:08:15;1.10;;;1.00;;
9722;SDS011;4900;49.306;8.500;2024-02-26T04:10:42;1.00;;;0.90;;
9722;SDS011;4900;49.306;8.500;2024-02-26T04:13:07;2.20;;;1.00;;
9722;SDS011;4900;49.306;8.500;2024-02-26T04:15:33;1.40;;;1.20;;
9722;SDS011;4900;49.306;8.500;2024-02-26T04:17:59;1.00;;;0.90;;
9722;SDS011;4900;49.306;8.500;2024-02-26T04:20:24;1.10;;;1.00;;
9722;SDS011;4900;49.306;8.500;2024-02-26T04:22:49;1.20;;;1.10;;
9722;SDS011;4900;49.306;8.500;2024-02-26T04:25:15;1.30;;;1.20;;
9722;SDS011;4900;49.306;8.500;2024-02-26T04:27:40;1.20;;;1.10;;
9722;SDS011;4900;49.306;8.500;2024-02-26T04:30:07;1.17;;;1.00;;
9722;SDS011;4900;49.306;8.500;2024-02-26T04:32:33;1.57;;;1.20;;
9722;SDS011;4900;49.306;8.500;2024-02-26T04:34:59;1.93;;;1.20;;
9722;SDS011;4900;49.306;8.500;2024-02-26T04:37:25;1.23;;;1.13;;
9722;SDS011;4900;49.306;8.500;2024-02-26T04:39:55;1.20;;;1.10;;
9722;SDS011;4900;49.306;8.500;2024-02-26T04:42:24;1.30;;;1.20;;
9722;SDS011;4900;49.306;8.500;2024-02-26T04:44:49;1.33;;;1.20;;
9722;SDS011;4900;49.306;8.500;2024-02-26T04:47:16;2.40;;;1.30;;
9722;SDS011;4900;49.306;8.500;2024-02-26T04:49:42;1.30;;;1.10;;
9722;SDS011;4900;49.306;8.500;2024-02-26T04:52:07;2.23;;;1.40;;
9722;SDS011;4900;49.306;8.500;2024-02-26T04:54:33;1.50;;;1.10;;
9722;SDS011;4900;49.306;8.500;2024-02-26T04:56:58;1.87;;;1.30;;
9722;SDS011;4900;49.306;8.500;2024-02-26T04:59:24;2.67;;;1.20;;
9722;SDS011;4900;49.306;8.500;2024-02-26T05:01:49;1.30;;;1.20;;
9722;SDS011;4900;49.306;8.500;2024-02-26T05:04:16;1.70;;;1.20;;
9722;SDS011;4900;49.306;8.500;2024-02-26T05:06:43;1.60;;;1.20;;
9722;SDS011;4900;49.306;8.500;2024-02-26T05:09:08;1.37;;;1.27;;
9722;SDS011;4900;49.306;8.500;2024-02-26T05:11:34;3.20;;;1.30;;
9722;SDS011;4900;49.306;8.500;2024-02-26T05:14:00;1.80;;;1.40;;
9722;SDS011;4900;49.306;8.500;2024-02-26T05:16:26;1.63;;;1.30;;
9722;SDS011;4900;49.306;8.500;2024-02-26T05:18:52;2.57;;;2.03;;
9722;SDS011;4900;49.306;8.500;2024-02-26T05:21:18;2.77;;;1.80;;
9722;SDS011;4900;49.306;8.500;2024-02-26T05:23:44;2.07;;;1.37;;
9722;SDS011;4900;49.306;8.500;2024-02-26T05:26:10;1.50;;;1.40;;
9722;SDS011;4900;49.306;8.500;2024-02-26T05:28:35;2.23;;;1.60;;
9722;SDS011;4900;49.306;8.500;2024-02-26T05:31:04;2.00;;;1.60;;
9722;SDS011;4900;49.306;8.500;2024-02-26T05:33:29;2.43;;;1.70;;
9722;SDS011;4900;49.306;8.500;2024-02-26T05:35:55;2.10;;;1.70;;
9722;SDS011;4900;49.306;8.500;2024-02-26T05:38:20;1.83;;;1.70;;
9722;SDS011;4900;49.306;8.500;2024-02-26T05:40:46;2.23;;;1.63;;
9722;SDS011;4900;49.306;8.500;2024-02-26T05:43:11;2.33;;;1.80;;
9722;SDS011;4900;49.306;8.500;2024-02-26T05:45:36;2.70;;;2.10;;
9722;SDS011;4900;49.306;8.500;2024-02-26T05:48:02;2.20;;;1.90;;
9722;SDS011;4900;49.306;8.500;2024-02-26T05:50:28;2.03;;;1.80;;
9722;SDS011;4900;49.306;8.500;2024-02-26T05:52:54;2.30;;;2.10;;
9722;SDS011;4900;49.306;8.500;2024-02-26T05:55:20;3.00;;;2.30;;
9722;SDS011;4900;49.306;8.500;2024-02-26T05:57:45;2.37;;;2.17;;
9722;SDS011;4900;49.306;8.500;2024-02-26T06:00:11;3.00;;;2.40;;
9722;SDS011;4900;49.306;8.500;2024-02-26T06:02:37;2.50;;;2.10;;
9722;SDS011;4900;49.306;8.500;2024-02-26T06:05:03;3.10;;;2.50;;
9722;SDS011;4900;49.306;8.500;2024-02-26T06:07:29;2.83;;;2.10;;
9722;SDS011;4900;49.306;8.500;2024-02-26T06:09:54;3.00;;;2.40;;
9722;SDS011;4900;49.306;8.500;2024-02-26T06:12:20;3.53;;;2.67;;
9722;SDS011;4900;49.306;8.500;2024-02-26T06:14:45;3.57;;;2.30;;
9722;SDS011;4900;49.306;8.500;2024-02-26T06:17:11;2.53;;;2.30;;
9722;SDS011;4900;49.306;8.500;2024-02-26T06:19:36;4.83;;;2.37;;
9722;SDS011;4900;49.306;8.500;2024-02-26T06:22:03;3.50;;;2.60;;
9722;SDS011;4900;49.306;8.500;2024-02-26T06:24:29;5.30;;;2.67;;
9722;SDS011;4900;49.306;8.500;2024-02-26T06:26:54;3.30;;;2.50;;
9722;SDS011;4900;49.306;8.500;2024-02-26T06:29:19;2.63;;;2.40;;
9722;SDS011;4900;49.306;8.500;2024-02-26T06:31:45;3.40;;;2.20;;
9722;SDS011;4900;49.306;8.500;2024-02-26T06:34:10;4.03;;;2.50;;
9722;SDS011;4900;49.306;8.500;2024-02-26T06:36:36;2.80;;;2.17;;
9722;SDS011;4900;49.306;8.500;2024-02-26T06:39:02;2.97;;;2.27;;
9722;SDS011;4900;49.306;8.500;2024-02-26T06:41:27;2.50;;;2.23;;
9722;SDS011;4900;49.306;8.500;2024-02-26T06:43:54;3.67;;;2.50;;
9722;SDS011;4900;49.306;8.500;2024-02-26T06:46:20;3.60;;;2.30;;
9722;SDS011;4900;49.306;8.500;2024-02-26T06:48:47;2.77;;;2.27;;
9722;SDS011;4900;49.306;8.500;2024-02-26T06:51:13;2.50;;;2.20;;
9722;SDS011;4900;49.306;8.500;2024-02-26T06:53:38;5.00;;;2.33;;
9722;SDS011;4900;49.306;8.500;2024-02-26T06:56:04;3.07;;;2.20;;
9722;SDS011;4900;49.306;8.500;2024-02-26T06:58:30;2.77;;;2.20;;
9722;SDS011;4900;49.306;8.500;2024-02-26T07:00:55;3.20;;;2.10;;
9722;SDS011;4900;49.306;8.500;2024-02-26T07:03:21;5.77;;;2.60;;
9722;SDS011;4900;49.306;8.500;2024-02-26T07:05:47;2.83;;;2.40;;
9722;SDS011;4900;49.306;8.500;2024-02-26T07:08:13;3.30;;;2.83;;
9722;SDS011;4900;49.306;8.500;2024-02-26T07:10:39;3.30;;;2.53;;
9722;SDS011;4900;49.306;8.500;2024-02-26T07:13:05;4.83;;;3.47;;
9722;SDS011;4900;49.306;8.500;2024-02-26T07:15:30;3.37;;;2.70;;
9722;SDS011;4900;49.306;8.500;2024-02-26T07:17:56;4.03;;;2.87;;
9722;SDS011;4900;49.306;8.500;2024-02-26T07:20:22;4.67;;;3.00;;
9722;SDS011;4900;49.306;8.500;2024-02-26T07:22:49;4.43;;;2.80;;
9722;SDS011;4900;49.306;8.500;2024-02-26T07:25:15;3.57;;;2.80;;
9722;SDS011;4900;49.306;8.500;2024-02-26T07:27:41;4.20;;;2.80;;
9722;SDS011;4900;49.306;8.500;2024-02-26T07:30:06;5.00;;;3.00;;
9722;SDS011;4900;49.306;8.500;2024-02-26T07:32:34;4.17;;;2.73;;
9722;SDS011;4900;49.306;8.500;2024-02-26T07:34:59;4.30;;;2.93;;
9722;SDS011;4900;49.306;8.500;2024-02-26T07:37:24;2.97;;;2.53;;
9722;SDS011;4900;49.306;8.500;2024-02-26T07:39:50;3.73;;;3.03;;
9722;SDS011;4900;49.306;8.500;2024-02-26T07:42:15;5.70;;;2.90;;
9722;SDS011;4900;49.306;8.500;2024-02-26T07:44:41;4.23;;;3.00;;
9722;SDS011;4900;49.306;8.500;2024-02-26T07:47:08;3.83;;;2.93;;
9722;SDS011;4900;49.306;8.500;2024-02-26T07:49:34;3.70;;;2.90;;
9722;SDS011;4900;49.306;8.500;2024-02-26T07:51:59;3.93;;;2.80;;
9722;SDS011;4900;49.306;8.500;2024-02-26T07:54:25;3.50;;;2.83;;
9722;SDS011;4900;49.306;8.500;2024-02-26T07:56:50;3.67;;;2.90;;
9722;SDS011;4900;49.306;8.500;2024-02-26T07:59:16;4.17;;;3.10;;
9722;SDS011;4900;49.306;8.500;2024-02-26T08:01:41;3.37;;;2.70;;
9722;SDS011;4900;49.306;8.500;2024-02-26T08:04:07;3.47;;;2.83;;
9722;SDS011;4900;49.306;8.500;2024-02-26T08:06:32;4.97;;;3.40;;
9722;SDS011;4900;49.306;8.500;2024-02-26T08:08:58;4.83;;;3.33;;
9722;SDS011;4900;49.306;8.500;2024-02-26T08:11:25;5.00;;;3.30;;
9722;SDS011;4900;49.306;8.500;2024-02-26T08:13:50;3.80;;;2.97;;
9722;SDS011;4900;49.306;8.500;2024-02-26T08:16:17;3.70;;;3.30;;
9722;SDS011;4900;49.306;8.500;2024-02-26T08:18:42;4.27;;;3.10;;
9722;SDS011;4900;49.306;8.500;2024-02-26T08:21:08;3.73;;;3.13;;
9722;SDS011;4900;49.306;8.500;2024-02-26T08:23:33;3.27;;;2.97;;
9722;SDS011;4900;49.306;8.500;2024-02-26T08:25:59;4.90;;;3.27;;
9722;SDS011;4900;49.306;8.500;2024-02-26T08:28:24;4.07;;;3.30;;
9722;SDS011;4900;49.306;8.500;2024-02-26T08:30:50;4.00;;;3.03;;
9722;SDS011;4900;49.306;8.500;2024-02-26T08:33:15;3.70;;;3.00;;
9722;SDS011;4900;49.306;8.500;2024-02-26T08:35:40;3.87;;;3.07;;
9722;SDS011;4900;49.306;8.500;2024-02-26T08:38:06;4.83;;;3.13;;
9722;SDS011;4900;49.306;8.500;2024-02-26T08:40:32;4.10;;;2.90;;
9722;SDS011;4900;49.306;8.500;2024-02-26T08:42:57;3.10;;;2.80;;
9722;SDS011;4900;49.306;8.500;2024-02-26T08:45:22;3.37;;;3.03;;
9722;SDS011;4900;49.306;8.500;2024-02-26T08:47:48;3.13;;;2.80;;
9722;SDS011;4900;49.306;8.500;2024-02-26T08:50:13;4.03;;;3.10;;
9722;SDS011;4900;49.306;8.500;2024-02-26T08:52:39;5.13;;;3.07;;
9722;SDS011;4900;49.306;8.500;2024-02-26T08:55:05;3.03;;;2.73;;
9722;SDS011;4900;49.306;8.500;2024-02-26T08:57:33;4.70;;;2.95;;
9722;SDS011;4900;49.306;8.500;2024-02-26T08:59:59;3.27;;;2.60;;
9722;SDS011;4900;49.306;8.500;2024-02-26T09:02:25;3.87;;;2.80;;
9722;SDS011;4900;49.306;8.500;2024-02-26T09:04:51;4.47;;;3.00;;
9722;SDS011;4900;49.306;8.500;2024-02-26T09:07:19;3.90;;;2.70;;
9722;SDS011;4900;49.306;8.500;2024-02-26T09:09:44;3.13;;;2.83;;
9722;SDS011;4900;49.306;8.500;2024-02-26T09:12:10;4.35;;;2.97;;
9722;SDS011;4900;49.306;8.500;2024-02-26T09:14:35;3.95;;;2.95;;
9722;SDS011;4900;49.306;8.500;2024-02-26T09:17:01;3.78;;;3.03;;
9722;SDS011;4900;49.306;8.500;2024-02-26T09:19:26;3.45;;;2.85;;
9722;SDS011;4900;49.306;8.500;2024-02-26T09:21:55;3.45;;;2.58;;
9722;SDS011;4900;49.306;8.500;2024-02-26T09:24:22;3.25;;;2.60;;
9722;SDS011;4900;49.306;8.500;2024-02-26T09:26:48;3.08;;;2.60;;
9722;SDS011;4900;49.306;8.500;2024-02-26T09:29:14;2.75;;;2.33;;
9722;SDS011;4900;49.306;8.500;2024-02-26T09:31:39;2.60;;;2.40;;
9722;SDS011;4900;49.306;8.500;2024-02-26T09:34:06;3.25;;;2.60;;
9722;SDS011;4900;49.306;8.500;2024-02-26T09:36:32;2.60;;;2.40;;
9722;SDS011;4900;49.306;8.500;2024-02-26T09:38:58;2.65;;;2.40;;
9722;SDS011;4900;49.306;8.500;2024-02-26T09:41:24;2.75;;;2.45;;
9722;SDS011;4900;49.306;8.500;2024-02-26T09:43:54;2.95;;;2.50;;
9722;SDS011;4900;49.306;8.500;2024-02-26T09:47:00;2.65;;;2.20;;
9722;SDS011;4900;49.306;8.500;2024-02-26T09:49:26;2.85;;;2.55;;
9722;SDS011;4900;49.306;8.500;2024-02-26T09:51:52;2.72;;;2.50;;
9722;SDS011;4900;49.306;8.500;2024-02-26T09:54:21;2.72;;;2.50;;
9722;SDS011;4900;49.306;8.500;2024-02-26T09:56:47;3.47;;;2.60;;
9722;SDS011;4900;49.306;8.500;2024-02-26T09:59:16;3.42;;;2.80;;
9722;SDS011;4900;49.306;8.500;2024-02-26T10:01:42;2.95;;;2.70;;
9722;SDS011;4900;49.306;8.500;2024-02-26T10:04:09;3.20;;;2.50;;
9722;SDS011;4900;49.306;8.500;2024-02-26T10:06:36;4.47;;;2.55;;
9722;SDS011;4900;49.306;8.500;2024-02-26T10:09:02;3.00;;;2.70;;
9722;SDS011;4900;49.306;8.500;2024-02-26T10:11:31;3.30;;;2.47;;
9722;SDS011;4900;49.306;8.500;2024-02-26T10:13:57;2.90;;;2.60;;
9722;SDS011;4900;49.306;8.500;2024-02-26T10:16:23;3.55;;;2.80;;
9722;SDS011;4900;49.306;8.500;2024-02-26T10:18:53;3.03;;;2.65;;
9722;SDS011;4900;49.306;8.500;2024-02-26T10:21:22;3.00;;;2.42;;
9722;SDS011;4900;49.306;8.500;2024-02-26T10:23:48;3.78;;;2.78;;
9722;SDS011;4900;49.306;8.500;2024-02-26T10:26:15;3.45;;;2.70;;
9722;SDS011;4900;49.306;8.500;2024-02-26T10:28:41;3.85;;;2.75;;
9722;SDS011;4900;49.306;8.500;2024-02-26T10:31:09;5.22;;;4.35;;
9722;SDS011;4900;49.306;8.500;2024-02-26T10:33:37;3.28;;;2.67;;
9722;SDS011;4900;49.306;8.500;2024-02-26T10:36:04;4.05;;;2.97;;
9722;SDS011;4900;49.306;8.500;2024-02-26T10:38:30;4.72;;;3.20;;
9722;SDS011;4900;49.306;8.500;2024-02-26T10:40:57;4.50;;;2.92;;
9722;SDS011;4900;49.306;8.500;2024-02-26T10:43:24;3.13;;;2.70;;
9722;SDS011;4900;49.306;8.500;2024-02-26T10:45:50;3.40;;;2.90;;
9722;SDS011;4900;49.306;8.500;2024-02-26T10:48:16;2.95;;;2.65;;
9722;SDS011;4900;49.306;8.500;2024-02-26T10:50:43;3.25;;;2.75;;
9722;SDS011;4900;49.306;8.500;2024-02-26T10:53:19;3.38;;;2.70;;
9722;SDS011;4900;49.306;8.500;2024-02-26T10:55:48;3.00;;;2.70;;
9722;SDS011;4900;49.306;8.500;2024-02-26T10:58:22;2.80;;;2.40;;
9722;SDS011;4900;49.306;8.500;2024-02-26T11:00:50;2.90;;;2.50;;
9722;SDS011;4900;49.306;8.500;2024-02-26T11:03:16;3.28;;;2.70;;
9722;SDS011;4900;49.306;8.500;2024-02-26T11:05:43;2.90;;;2.60;;
9722;SDS011;4900;49.306;8.500;2024-02-26T11:08:10;3.38;;;2.30;;
9722;SDS011;4900;49.306;8.500;2024-02-26T11:10:37;3.08;;;2.55;;
9722;SDS011;4900;49.306;8.500;2024-02-26T11:13:03;2.90;;;2.60;;
9722;SDS011;4900;49.306;8.500;2024-02-26T11:15:32;4.15;;;2.35;;
9722;SDS011;4900;49.306;8.500;2024-02-26T11:17:59;3.33;;;2.50;;
9722;SDS011;4900;49.306;8.500;2024-02-26T11:20:27;2.90;;;2.50;;
9722;SDS011;4900;49.306;8.500;2024-02-26T11:22:54;2.75;;;2.40;;
9722;SDS011;4900;49.306;8.500;2024-02-26T11:25:20;3.05;;;2.65;;
9722;SDS011;4900;49.306;8.500;2024-02-26T11:27:47;2.90;;;2.42;;
9722;SDS011;4900;49.306;8.500;2024-02-26T11:30:15;3.00;;;2.50;;
9722;SDS011;4900;49.306;8.500;2024-02-26T11:32:46;2.70;;;2.50;;
9722;SDS011;4900;49.306;8.500;2024-02-26T11:35:12;3.15;;;2.50;;
9722;SDS011;4900;49.306;8.500;2024-02-26T11:37:40;3.45;;;2.30;;
9722;SDS011;4900;49.306;8.500;2024-02-26T11:40:09;3.38;;;2.72;;
9722;SDS011;4900;49.306;8.500;2024-02-26T11:42:37;4.10;;;2.60;;
9722;SDS011;4900;49.306;8.500;2024-02-26T11:48:03;2.50;;;2.30;;
9722;SDS011;4900;49.306;8.500;2024-02-26T11:51:02;2.67;;;2.30;;
9722;SDS011;4900;49.306;8.500;2024-02-26T11:58:40;2.45;;;2.25;;
9722;SDS011;4900;49.306;8.500;2024-02-26T12:01:35;3.08;;;2.33;;
9722;SDS011;4900;49.306;8.500;2024-02-26T12:04:24;2.72;;;2.10;;
9722;SDS011;4900;49.306;8.500;2024-02-26T12:12:13;2.95;;;2.40;;
9722;SDS011;4900;49.306;8.500;2024-02-26T12:14:53;2.65;;;2.20;;
9722;SDS011;4900;49.306;8.500;2024-02-26T12:17:21;2.30;;;2.10;;
9722;SDS011;4900;49.306;8.500;2024-02-26T12:19:48;2.75;;;2.30;;
9722;SDS011;4900;49.306;8.500;2024-02-26T12:22:15;2.17;;;1.98;;
9722;SDS011;4900;49.306;8.500;2024-02-26T12:24:41;2.50;;;2.00;;
9722;SDS011;4900;49.306;8.500;2024-02-26T12:27:07;2.92;;;2.10;;
9722;SDS011;4900;49.306;8.500;2024-02-26T12:29:33;3.13;;;2.60;;
9722;SDS011;4900;49.306;8.500;2024-02-26T12:31:58;4.72;;;2.30;;
9722;SDS011;4900;49.306;8.500;2024-02-26T12:34:24;2.42;;;2.22;;
9722;SDS011;4900;49.306;8.500;2024-02-26T12:36:50;2.38;;;2.17;;
9722;SDS011;4900;49.306;8.500;2024-02-26T12:39:16;2.88;;;2.20;;
9722;SDS011;4900;49.306;8.500;2024-02-26T12:41:41;2.50;;;2.08;;
9722;SDS011;4900;49.306;8.500;2024-02-26T12:44:14;2.42;;;2.08;;
9722;SDS011;4900;49.306;8.500;2024-02-26T12:46:40;2.63;;;1.92;;
9722;SDS011;4900;49.306;8.500;2024-02-26T12:49:06;2.47;;;1.92;;
9722;SDS011;4900;49.306;8.500;2024-02-26T12:51:31;2.90;;;2.08;;
9722;SDS011;4900;49.306;8.500;2024-02-26T12:53:58;1.92;;;1.73;;
9722;SDS011;4900;49.306;8.500;2024-02-26T12:56:24;2.40;;;2.03;;
9722;SDS011;4900;49.306;8.500;2024-02-26T12:58:51;2.10;;;1.90;;
9722;SDS011;4900;49.306;8.500;2024-02-26T13:01:18;2.95;;;1.98;;
9722;SDS011;4900;49.306;8.500;2024-02-26T13:03:47;2.22;;;1.88;;
9722;SDS011;4900;49.306;8.500;2024-02-26T13:06:14;2.05;;;1.77;;
9722;SDS011;4900;49.306;8.500;2024-02-26T13:08:39;2.65;;;1.90;;
9722;SDS011;4900;49.306;8.500;2024-02-26T13:11:05;2.05;;;1.70;;
9722;SDS011;4900;49.306;8.500;2024-02-26T13:13:31;1.75;;;1.65;;
9722;SDS011;4900;49.306;8.500;2024-02-26T13:16:06;1.60;;;1.50;;
9722;SDS011;4900;49.306;8.500;2024-02-26T13:18:33;1.52;;;1.40;;
9722;SDS011;4900;49.306;8.500;2024-02-26T13:23:39;1.50;;;1.40;;
9722;SDS011;4900;49.306;8.500;2024-02-26T13:26:05;1.70;;;1.60;;
9722;SDS011;4900;49.306;8.500;2024-02-26T13:28:31;2.63;;;1.60;;
9722;SDS011;4900;49.306;8.500;2024-02-26T13:30:58;2.42;;;1.40;;
9722;SDS011;4900;49.306;8.500;2024-02-26T13:33:25;1.52;;;1.42;;
9722;SDS011;4900;49.306;8.500;2024-02-26T13:35:52;2.85;;;1.30;;
9722;SDS011;4900;49.306;8.500;2024-02-26T13:38:19;2.72;;;1.40;;
9722;SDS011;4900;49.306;8.500;2024-02-26T13:40:44;1.30;;;1.20;;
9722;SDS011;4900;49.306;8.500;2024-02-26T13:43:10;1.55;;;1.25;;
9722;SDS011;4900;49.306;8.500;2024-02-26T13:45:36;1.30;;;1.10;;
9722;SDS011;4900;49.306;8.500;2024-02-26T13:48:04;1.60;;;1.30;;
9722;SDS011;4900;49.306;8.500;2024-02-26T13:50:30;1.27;;;1.15;;
9722;SDS011;4900;49.306;8.500;2024-02-26T13:52:56;1.92;;;1.13;;
9722;SDS011;4900;49.306;8.500;2024-02-26T13:55:23;1.40;;;1.20;;
9722;SDS011;4900;49.306;8.500;2024-02-26T13:57:51;1.58;;;1.20;;
9722;SDS011;4900;49.306;8.500;2024-02-26T14:00:18;1.45;;;1.20;;
9722;SDS011;4900;49.306;8.500;2024-02-26T14:02:44;1.20;;;1.10;;
9722;SDS011;4900;49.306;8.500;2024-02-26T14:05:10;1.35;;;1.20;;
9722;SDS011;4900;49.306;8.500;2024-02-26T14:07:36;1.40;;;1.25;;
9722;SDS011;4900;49.306;8.500;2024-02-26T14:10:02;1.38;;;1.20;;
9722;SDS011;4900;49.306;8.500;2024-02-26T14:12:28;1.33;;;1.20;;
9722;SDS011;4900;49.306;8.500;2024-02-26T14:14:54;1.35;;;1.20;;
9722;SDS011;4900;49.306;8.500;2024-02-26T14:17:20;2.17;;;1.10;;
9722;SDS011;4900;49.306;8.500;2024-02-26T14:19:47;1.58;;;1.30;;
9722;SDS011;4900;49.306;8.500;2024-02-26T14:22:13;1.80;;;1.70;;
9722;SDS011;4900;49.306;8.500;2024-02-26T14:24:42;2.03;;;1.30;;
9722;SDS011;4900;49.306;8.500;2024-02-26T14:27:08;1.30;;;1.20;;
9722;SDS011;4900;49.306;8.500;2024-02-26T14:29:35;1.30;;;1.10;;
9722;SDS011;4900;49.306;8.500;2024-02-26T14:32:02;1.10;;;1.00;;
9722;SDS011;4900;49.306;8.500;2024-02-26T14:34:28;1.00;;;0.90;;
9722;SDS011;4900;49.306;8.500;2024-02-26T14:36:54;1.10;;;1.00;;
9722;SDS011;4900;49.306;8.500;2024-02-26T14:39:19;2.00;;;1.15;;
9722;SDS011;4900;49.306;8.500;2024-02-26T14:41:45;1.42;;;1.00;;
9722;SDS011;4900;49.306;8.500;2024-02-26T14:44:11;0.80;;;0.80;;
9722;SDS011;4900;49.306;8.500;2024-02-26T14:46:37;0.90;;;0.90;;
9722;SDS011;4900;49.306;8.500;2024-02-26T14:49:03;1.13;;;1.00;;
9722;SDS011;4900;49.306;8.500;2024-02-26T14:51:28;0.77;;;0.77;;
9722;SDS011;4900;49.306;8.500;2024-02-26T14:53:54;0.98;;;0.90;;
9722;SDS011;4900;49.306;8.500;2024-02-26T14:56:20;1.20;;;1.10;;
9722;SDS011;4900;49.306;8.500;2024-02-26T14:58:45;1.20;;;1.10;;
9722;SDS011;4900;49.306;8.500;2024-02-26T15:01:10;0.80;;;0.80;;
9722;SDS011;4900;49.306;8.500;2024-02-26T15:03:36;0.70;;;0.70;;
9722;SDS011;4900;49.306;8.500;2024-02-26T15:06:02;0.82;;;0.80;;
9722;SDS011;4900;49.306;8.500;2024-02-26T15:08:28;0.60;;;0.60;;
9722;SDS011;4900;49.306;8.500;2024-02-26T15:10:54;0.90;;;0.90;;
9722;SDS011;4900;49.306;8.500;2024-02-26T15:13:19;0.82;;;0.82;;
9722;SDS011;4900;49.306;8.500;2024-02-26T15:15:45;0.70;;;0.70;;
9722;SDS011;4900;49.306;8.500;2024-02-26T15:18:11;0.80;;;0.80;;
9722;SDS011;4900;49.306;8.500;2024-02-26T15:20:41;0.98;;;0.80;;
9722;SDS011;4900;49.306;8.500;2024-02-26T15:23:07;1.75;;;0.80;;
9722;SDS011;4900;49.306;8.500;2024-02-26T15:25:33;0.90;;;0.75;;
9722;SDS011;4900;49.306;8.500;2024-02-26T15:27:58;0.75;;;0.70;;